Floe, West Virginia
Current Conditions -  °F | °C
As of 5:19 AM on Saturday 01 Nov 2014 (Local Time) from KCRW Reporting Station
Light Rain Light Rain  
Wind Chill: 37°   Ceiling: 800
Heat Index: 41°   Visibility: 6mi
Dew Point: 39°   Wind: 6mph
Humidity: 93%   Direction: 350°N
Pressure: 29.88"   Gusts: NA
Location:  38.6746°N, 81.0928°W
Report Text: KCRW 010919Z 35005KT 6SM -RA BR BKN008 OVC018 05/04 A2988 RMK AO2 VLY FG P0000 T00500039
Loading
Personal Weather Stations






























Interactive Weather Map
Tropical Storm Tracking
New forecast layout! Learn more

10-Day Weather Forecast

Advertisements
Track Severe Weather on mobile